sensor_id;sensor_type;location;lat;lon;timestamp;pressure;altitude;pressure_sealevel;temperature;humidity
34738;BME280;39910;47.154;27.614;2023-01-01T00:01:36;101805.88;;;3.56;100.00
34738;BME280;39910;47.154;27.614;2023-01-01T00:04:08;101801.59;;;3.55;100.00
34738;BME280;39910;47.154;27.614;2023-01-01T00:06:35;101800.28;;;3.48;100.00
34738;BME280;39910;47.154;27.614;2023-01-01T00:09:00;101798.34;;;3.38;100.00
34738;BME280;39910;47.154;27.614;2023-01-01T00:11:44;101780.63;;;3.41;100.00
34738;BME280;39910;47.154;27.614;2023-01-01T00:14:10;101787.22;;;3.34;100.00
34738;BME280;39910;47.154;27.614;2023-01-01T00:16:35;101793.66;;;3.43;100.00
34738;BME280;39910;47.154;27.614;2023-01-01T00:19:01;101796.00;;;3.47;100.00
34738;BME280;39910;47.154;27.614;2023-01-01T00:21:27;101797.09;;;3.43;100.00
34738;BME280;39910;47.154;27.614;2023-01-01T00:23:52;101801.91;;;3.37;100.00
34738;BME280;39910;47.154;27.614;2023-01-01T00:26:18;101793.97;;;3.38;100.00
34738;BME280;39910;47.154;27.614;2023-01-01T00:28:44;101801.06;;;3.36;100.00
34738;BME280;39910;47.154;27.614;2023-01-01T00:31:15;101797.03;;;3.30;100.00
34738;BME280;39910;47.154;27.614;2023-01-01T00:33:45;101806.88;;;3.27;100.00
34738;BME280;39910;47.154;27.614;2023-01-01T00:36:15;101810.16;;;3.30;100.00
34738;BME280;39910;47.154;27.614;2023-01-01T00:38:41;101810.91;;;3.32;100.00
34738;BME280;39910;47.154;27.614;2023-01-01T00:41:07;101808.94;;;3.36;100.00
34738;BME280;39910;47.154;27.614;2023-01-01T00:43:33;101806.63;;;3.31;100.00
34738;BME280;39910;47.154;27.614;2023-01-01T00:45:59;101811.41;;;3.25;100.00
34738;BME280;39910;47.154;27.614;2023-01-01T00:48:24;101810.72;;;3.36;100.00
34738;BME280;39910;47.154;27.614;2023-01-01T00:50:50;101808.75;;;3.39;100.00
34738;BME280;39910;47.154;27.614;2023-01-01T00:53:17;101808.78;;;3.25;100.00
34738;BME280;39910;47.154;27.614;2023-01-01T00:55:42;101812.69;;;3.32;100.00
34738;BME280;39910;47.154;27.614;2023-01-01T00:58:09;101811.28;;;3.26;100.00
34738;BME280;39910;47.154;27.614;2023-01-01T01:00:35;101808.94;;;3.36;100.00
34738;BME280;39910;47.154;27.614;2023-01-01T01:03:01;101806.44;;;3.20;100.00
34738;BME280;39910;47.154;27.614;2023-01-01T01:05:27;101807.00;;;3.25;100.00
34738;BME280;39910;47.154;27.614;2023-01-01T01:07:53;101804.75;;;3.19;100.00
34738;BME280;39910;47.154;27.614;2023-01-01T01:10:19;101801.75;;;3.11;100.00
34738;BME280;39910;47.154;27.614;2023-01-01T01:12:46;101796.78;;;3.07;100.00
34738;BME280;39910;47.154;27.614;2023-01-01T01:15:12;101799.25;;;3.10;100.00
34738;BME280;39910;47.154;27.614;2023-01-01T01:17:38;101801.31;;;3.04;100.00
34738;BME280;39910;47.154;27.614;2023-01-01T01:20:04;101795.94;;;3.06;100.00
34738;BME280;39910;47.154;27.614;2023-01-01T01:22:30;101786.66;;;3.15;100.00
34738;BME280;39910;47.154;27.614;2023-01-01T01:24:56;101790.78;;;3.19;100.00
34738;BME280;39910;47.154;27.614;2023-01-01T01:27:22;101803.16;;;3.17;100.00
34738;BME280;39910;47.154;27.614;2023-01-01T01:29:47;101788.19;;;3.04;100.00
34738;BME280;39910;47.154;27.614;2023-01-01T01:32:12;101788.00;;;3.08;100.00
34738;BME280;39910;47.154;27.614;2023-01-01T01:34:38;101787.25;;;3.05;100.00
34738;BME280;39910;47.154;27.614;2023-01-01T01:37:03;101790.44;;;2.96;100.00
34738;BME280;39910;47.154;27.614;2023-01-01T01:39:29;101788.94;;;3.07;100.00
34738;BME280;39910;47.154;27.614;2023-01-01T01:41:54;101781.84;;;3.09;100.00
34738;BME280;39910;47.154;27.614;2023-01-01T01:44:52;101772.47;;;3.04;100.00
34738;BME280;39910;47.154;27.614;2023-01-01T01:50:18;101769.63;;;3.08;100.00
34738;BME280;39910;47.154;27.614;2023-01-01T01:52:57;101773.88;;;3.10;100.00
34738;BME280;39910;47.154;27.614;2023-01-01T01:55:27;101775.53;;;3.11;100.00
34738;BME280;39910;47.154;27.614;2023-01-01T01:57:54;101776.75;;;3.20;100.00
34738;BME280;39910;47.154;27.614;2023-01-01T02:00:19;101766.91;;;3.23;100.00
34738;BME280;39910;47.154;27.614;2023-01-01T02:03:08;101769.31;;;3.41;100.00
34738;BME280;39910;47.154;27.614;2023-01-01T02:05:34;101767.75;;;3.24;100.00
34738;BME280;39910;47.154;27.614;2023-01-01T02:08:03;101756.16;;;3.14;100.00
34738;BME280;39910;47.154;27.614;2023-01-01T02:10:29;101755.38;;;3.26;100.00
34738;BME280;39910;47.154;27.614;2023-01-01T02:12:55;101753.59;;;3.26;100.00
34738;BME280;39910;47.154;27.614;2023-01-01T02:15:22;101751.81;;;3.27;100.00
34738;BME280;39910;47.154;27.614;2023-01-01T02:18:08;101756.97;;;3.28;100.00
34738;BME280;39910;47.154;27.614;2023-01-01T02:20:47;101761.63;;;2.96;100.00
34738;BME280;39910;47.154;27.614;2023-01-01T02:26:41;101763.09;;;3.00;100.00
34738;BME280;39910;47.154;27.614;2023-01-01T02:29:37;101769.75;;;3.06;100.00
34738;BME280;39910;47.154;27.614;2023-01-01T02:32:20;101765.53;;;3.03;100.00
34738;BME280;39910;47.154;27.614;2023-01-01T02:34:56;101763.00;;;3.16;100.00
34738;BME280;39910;47.154;27.614;2023-01-01T02:37:24;101763.63;;;3.20;100.00
34738;BME280;39910;47.154;27.614;2023-01-01T02:39:57;101772.09;;;3.11;100.00
34738;BME280;39910;47.154;27.614;2023-01-01T02:42:26;101767.97;;;3.07;100.00
34738;BME280;39910;47.154;27.614;2023-01-01T02:44:54;101770.78;;;3.03;100.00
34738;BME280;39910;47.154;27.614;2023-01-01T02:47:21;101771.16;;;3.12;100.00
34738;BME280;39910;47.154;27.614;2023-01-01T02:49:53;101772.69;;;3.28;100.00
34738;BME280;39910;47.154;27.614;2023-01-01T02:52:40;101774.13;;;3.20;100.00
34738;BME280;39910;47.154;27.614;2023-01-01T02:57:51;101778.16;;;3.25;100.00
34738;BME280;39910;47.154;27.614;2023-01-01T03:00:19;101763.09;;;3.00;100.00
34738;BME280;39910;47.154;27.614;2023-01-01T03:11:18;101780.66;;;3.27;100.00
34738;BME280;39910;47.154;27.614;2023-01-01T03:19:15;101769.38;;;2.98;100.00
34738;BME280;39910;47.154;27.614;2023-01-01T03:21:58;101761.72;;;2.81;100.00
34738;BME280;39910;47.154;27.614;2023-01-01T03:29:41;101774.63;;;2.84;100.00
34738;BME280;39910;47.154;27.614;2023-01-01T03:32:11;101771.91;;;2.99;100.00
34738;BME280;39910;47.154;27.614;2023-01-01T03:34:42;101781.00;;;2.94;100.00
34738;BME280;39910;47.154;27.614;2023-01-01T03:37:14;101777.31;;;3.11;100.00
34738;BME280;39910;47.154;27.614;2023-01-01T03:39:48;101783.53;;;2.95;100.00
34738;BME280;39910;47.154;27.614;2023-01-01T03:42:31;101777.50;;;3.08;100.00
34738;BME280;39910;47.154;27.614;2023-01-01T03:45:16;101773.66;;;3.13;100.00
34738;BME280;39910;47.154;27.614;2023-01-01T03:47:43;101772.84;;;2.98;100.00
34738;BME280;39910;47.154;27.614;2023-01-01T03:50:09;101773.41;;;3.03;100.00
34738;BME280;39910;47.154;27.614;2023-01-01T03:55:31;101765.44;;;3.05;100.00
34738;BME280;39910;47.154;27.614;2023-01-01T04:00:44;101770.13;;;2.86;100.00
34738;BME280;39910;47.154;27.614;2023-01-01T04:03:19;101768.19;;;2.89;100.00
34738;BME280;39910;47.154;27.614;2023-01-01T04:05:47;101772.28;;;2.93;100.00
34738;BME280;39910;47.154;27.614;2023-01-01T04:08:13;101765.44;;;2.91;100.00
34738;BME280;39910;47.154;27.614;2023-01-01T04:10:47;101773.22;;;2.92;100.00
34738;BME280;39910;47.154;27.614;2023-01-01T04:13:15;101773.59;;;2.86;100.00
34738;BME280;39910;47.154;27.614;2023-01-01T04:15:40;101778.75;;;2.88;100.00
34738;BME280;39910;47.154;27.614;2023-01-01T04:18:06;101782.97;;;2.90;100.00
34738;BME280;39910;47.154;27.614;2023-01-01T04:20:31;101781.84;;;2.94;100.00
34738;BME280;39910;47.154;27.614;2023-01-01T04:22:59;101780.13;;;2.93;100.00
34738;BME280;39910;47.154;27.614;2023-01-01T04:25:25;101785.00;;;2.85;100.00
34738;BME280;39910;47.154;27.614;2023-01-01T04:27:51;101779.41;;;2.91;100.00
34738;BME280;39910;47.154;27.614;2023-01-01T04:30:17;101781.38;;;3.02;100.00
34738;BME280;39910;47.154;27.614;2023-01-01T04:32:42;101780.69;;;2.98;100.00
34738;BME280;39910;47.154;27.614;2023-01-01T04:35:09;101776.41;;;2.97;100.00
34738;BME280;39910;47.154;27.614;2023-01-01T04:37:38;101793.22;;;3.08;100.00
34738;BME280;39910;47.154;27.614;2023-01-01T04:40:05;101774.34;;;3.02;100.00
34738;BME280;39910;47.154;27.614;2023-01-01T04:42:30;101784.47;;;2.80;100.00
34738;BME280;39910;47.154;27.614;2023-01-01T04:44:56;101787.09;;;2.80;100.00
34738;BME280;39910;47.154;27.614;2023-01-01T04:47:21;101791.56;;;2.78;100.00
34738;BME280;39910;47.154;27.614;2023-01-01T04:49:47;101793.44;;;2.76;100.00
34738;BME280;39910;47.154;27.614;2023-01-01T04:52:12;101805.50;;;3.07;100.00
34738;BME280;39910;47.154;27.614;2023-01-01T04:54:37;101806.75;;;3.01;100.00
34738;BME280;39910;47.154;27.614;2023-01-01T04:57:03;101796.16;;;2.89;100.00
34738;BME280;39910;47.154;27.614;2023-01-01T04:59:31;101805.97;;;2.99;100.00
34738;BME280;39910;47.154;27.614;2023-01-01T05:01:56;101806.75;;;3.01;100.00
34738;BME280;39910;47.154;27.614;2023-01-01T05:04:22;101802.41;;;3.00;100.00
34738;BME280;39910;47.154;27.614;2023-01-01T05:06:48;101795.78;;;2.81;100.00
34738;BME280;39910;47.154;27.614;2023-01-01T05:09:13;101804.03;;;2.89;100.00
34738;BME280;39910;47.154;27.614;2023-01-01T05:11:39;101805.44;;;2.94;100.00
34738;BME280;39910;47.154;27.614;2023-01-01T05:14:04;101805.97;;;2.85;100.00
34738;BME280;39910;47.154;27.614;2023-01-01T05:16:32;101810.22;;;3.02;100.00
34738;BME280;39910;47.154;27.614;2023-01-01T05:18:58;101815.44;;;2.88;100.00
34738;BME280;39910;47.154;27.614;2023-01-01T05:21:35;101819.00;;;2.72;100.00
34738;BME280;39910;47.154;27.614;2023-01-01T05:24:04;101823.66;;;2.67;100.00
34738;BME280;39910;47.154;27.614;2023-01-01T05:26:32;101817.59;;;2.67;100.00
34738;BME280;39910;47.154;27.614;2023-01-01T05:28:59;101818.59;;;2.64;100.00
34738;BME280;39910;47.154;27.614;2023-01-01T05:31:28;101823.00;;;2.64;100.00
34738;BME280;39910;47.154;27.614;2023-01-01T05:33:53;101827.94;;;2.54;100.00
34738;BME280;39910;47.154;27.614;2023-01-01T05:36:26;101820.00;;;2.70;100.00
34738;BME280;39910;47.154;27.614;2023-01-01T05:38:53;101825.44;;;2.67;100.00
34738;BME280;39910;47.154;27.614;2023-01-01T05:41:19;101827.84;;;2.56;100.00
34738;BME280;39910;47.154;27.614;2023-01-01T05:43:45;101832.22;;;2.41;100.00
34738;BME280;39910;47.154;27.614;2023-01-01T05:46:13;101828.75;;;2.40;100.00
34738;BME280;39910;47.154;27.614;2023-01-01T05:48:39;101832.06;;;2.44;100.00
34738;BME280;39910;47.154;27.614;2023-01-01T05:51:10;101833.06;;;2.41;100.00
34738;BME280;39910;47.154;27.614;2023-01-01T05:53:36;101829.44;;;2.44;100.00
34738;BME280;39910;47.154;27.614;2023-01-01T05:56:01;101829.44;;;2.44;100.00
34738;BME280;39910;47.154;27.614;2023-01-01T05:58:28;101827.28;;;2.51;100.00
34738;BME280;39910;47.154;27.614;2023-01-01T06:00:54;101831.03;;;2.61;100.00
34738;BME280;39910;47.154;27.614;2023-01-01T06:03:20;101828.84;;;2.39;100.00
34738;BME280;39910;47.154;27.614;2023-01-01T06:05:46;101824.28;;;2.42;100.00
34738;BME280;39910;47.154;27.614;2023-01-01T06:08:12;101822.69;;;2.54;100.00
34738;BME280;39910;47.154;27.614;2023-01-01T06:10:38;101824.97;;;2.60;100.00
34738;BME280;39910;47.154;27.614;2023-01-01T06:13:04;101813.28;;;2.66;100.00
34738;BME280;39910;47.154;27.614;2023-01-01T06:15:30;101810.00;;;2.62;100.00
34738;BME280;39910;47.154;27.614;2023-01-01T06:17:57;101827.59;;;2.60;100.00
34738;BME280;39910;47.154;27.614;2023-01-01T06:20:23;101831.63;;;2.66;100.00
34738;BME280;39910;47.154;27.614;2023-01-01T06:22:48;101837.69;;;2.66;100.00
34738;BME280;39910;47.154;27.614;2023-01-01T06:25:14;101841.28;;;2.80;100.00
34738;BME280;39910;47.154;27.614;2023-01-01T06:27:39;101857.25;;;2.75;100.00
34738;BME280;39910;47.154;27.614;2023-01-01T06:30:06;101853.13;;;2.71;100.00
34738;BME280;39910;47.154;27.614;2023-01-01T06:32:32;101845.13;;;3.02;100.00
34738;BME280;39910;47.154;27.614;2023-01-01T06:34:58;101854.38;;;3.22;100.00
34738;BME280;39910;47.154;27.614;2023-01-01T06:37:24;101857.84;;;2.94;100.00
34738;BME280;39910;47.154;27.614;2023-01-01T06:39:51;101855.97;;;3.25;100.00
34738;BME280;39910;47.154;27.614;2023-01-01T06:42:16;101849.16;;;3.64;100.00
34738;BME280;39910;47.154;27.614;2023-01-01T06:44:42;101852.25;;;3.70;100.00
34738;BME280;39910;47.154;27.614;2023-01-01T06:47:07;101860.47;;;3.78;100.00
34738;BME280;39910;47.154;27.614;2023-01-01T06:49:33;101861.88;;;3.84;100.00
34738;BME280;39910;47.154;27.614;2023-01-01T06:51:58;101870.84;;;3.80;100.00
34738;BME280;39910;47.154;27.614;2023-01-01T06:54:25;101888.53;;;3.64;100.00
34738;BME280;39910;47.154;27.614;2023-01-01T06:56:50;101880.84;;;3.75;100.00
34738;BME280;39910;47.154;27.614;2023-01-01T06:59:16;101889.94;;;5.26;100.00
34738;BME280;39910;47.154;27.614;2023-01-01T07:01:42;101874.88;;;4.52;100.00
34738;BME280;39910;47.154;27.614;2023-01-01T07:04:11;101892.00;;;5.60;100.00
34738;BME280;39910;47.154;27.614;2023-01-01T07:06:37;101890.56;;;4.92;100.00
34738;BME280;39910;47.154;27.614;2023-01-01T07:09:03;101889.09;;;4.75;100.00
34738;BME280;39910;47.154;27.614;2023-01-01T07:11:29;101897.34;;;5.58;100.00
34738;BME280;39910;47.154;27.614;2023-01-01T07:13:55;101896.75;;;6.04;100.00
34738;BME280;39910;47.154;27.614;2023-01-01T07:16:21;101897.28;;;5.47;100.00
34738;BME280;39910;47.154;27.614;2023-01-01T07:18:47;101886.13;;;5.93;100.00
34738;BME280;39910;47.154;27.614;2023-01-01T07:21:25;101894.50;;;6.46;100.00
34738;BME280;39910;47.154;27.614;2023-01-01T07:23:51;101888.25;;;5.51;100.00
34738;BME280;39910;47.154;27.614;2023-01-01T07:26:17;101893.47;;;7.39;100.00
34738;BME280;39910;47.154;27.614;2023-01-01T07:28:42;101892.97;;;7.68;100.00
34738;BME280;39910;47.154;27.614;2023-01-01T07:31:09;101887.88;;;6.05;100.00
34738;BME280;39910;47.154;27.614;2023-01-01T07:33:35;101890.63;;;7.97;100.00
34738;BME280;39910;47.154;27.614;2023-01-01T07:36:00;101884.28;;;8.31;100.00
34738;BME280;39910;47.154;27.614;2023-01-01T07:38:26;101893.47;;;8.48;100.00
34738;BME280;39910;47.154;27.614;2023-01-01T07:40:51;101890.50;;;6.29;100.00
34738;BME280;39910;47.154;27.614;2023-01-01T07:43:16;101895.72;;;5.94;100.00
34738;BME280;39910;47.154;27.614;2023-01-01T07:45:42;101901.63;;;8.13;100.00
34738;BME280;39910;47.154;27.614;2023-01-01T07:48:12;101904.41;;;9.67;100.00
34738;BME280;39910;47.154;27.614;2023-01-01T07:50:39;101899.09;;;8.23;100.00
34738;BME280;39910;47.154;27.614;2023-01-01T07:53:04;101902.41;;;10.19;100.00
34738;BME280;39910;47.154;27.614;2023-01-01T07:55:31;101902.13;;;10.90;100.00
34738;BME280;39910;47.154;27.614;2023-01-01T07:57:58;101904.84;;;9.02;100.00
34738;BME280;39910;47.154;27.614;2023-01-01T08:00:24;101902.28;;;9.92;100.00
34738;BME280;39910;47.154;27.614;2023-01-01T08:02:49;101904.56;;;10.45;100.00
34738;BME280;39910;47.154;27.614;2023-01-01T08:05:15;101901.28;;;9.12;100.00
34738;BME280;39910;47.154;27.614;2023-01-01T08:07:47;101905.59;;;7.53;100.00
34738;BME280;39910;47.154;27.614;2023-01-01T08:10:15;101918.94;;;6.72;100.00
34738;BME280;39910;47.154;27.614;2023-01-01T08:12:41;101925.22;;;8.48;100.00
34738;BME280;39910;47.154;27.614;2023-01-01T08:15:08;101926.44;;;9.68;100.00
34738;BME280;39910;47.154;27.614;2023-01-01T08:17:33;101915.56;;;9.00;100.00
34738;BME280;39910;47.154;27.614;2023-01-01T08:19:59;101922.09;;;10.17;100.00
34738;BME280;39910;47.154;27.614;2023-01-01T08:22:24;101925.78;;;10.45;100.00
34738;BME280;39910;47.154;27.614;2023-01-01T08:24:50;101919.63;;;10.54;100.00
34738;BME280;39910;47.154;27.614;2023-01-01T08:27:16;101923.09;;;10.84;100.00
34738;BME280;39910;47.154;27.614;2023-01-01T08:29:42;101910.72;;;10.36;100.00
34738;BME280;39910;47.154;27.614;2023-01-01T08:32:08;101914.38;;;11.11;100.00
34738;BME280;39910;47.154;27.614;2023-01-01T08:34:34;101920.59;;;11.39;100.00
34738;BME280;39910;47.154;27.614;2023-01-01T08:36:59;101919.63;;;11.95;100.00
34738;BME280;39910;47.154;27.614;2023-01-01T08:39:25;101915.50;;;12.28;100.00
34738;BME280;39910;47.154;27.614;2023-01-01T08:41:50;101914.47;;;10.23;100.00
34738;BME280;39910;47.154;27.614;2023-01-01T08:44:16;101913.63;;;13.34;100.00
34738;BME280;39910;47.154;27.614;2023-01-01T08:46:41;101911.03;;;13.92;100.00
34738;BME280;39910;47.154;27.614;2023-01-01T08:49:07;101899.63;;;12.62;100.00
34738;BME280;39910;47.154;27.614;2023-01-01T08:51:33;101894.19;;;12.89;100.00
34738;BME280;39910;47.154;27.614;2023-01-01T08:53:58;101893.47;;;13.31;100.00
34738;BME280;39910;47.154;27.614;2023-01-01T08:56:24;101889.91;;;12.96;100.00
34738;BME280;39910;47.154;27.614;2023-01-01T08:58:49;101893.56;;;14.14;100.00
34738;BME280;39910;47.154;27.614;2023-01-01T09:01:15;101891.53;;;13.15;100.00
34738;BME280;39910;47.154;27.614;2023-01-01T09:03:40;101901.94;;;11.11;100.00
34738;BME280;39910;47.154;27.614;2023-01-01T09:06:06;101908.28;;;10.91;100.00
34738;BME280;39910;47.154;27.614;2023-01-01T09:08:31;101898.59;;;12.37;100.00
34738;BME280;39910;47.154;27.614;2023-01-01T09:10:59;101894.59;;;13.03;100.00
34738;BME280;39910;47.154;27.614;2023-01-01T09:13:25;101883.69;;;11.63;100.00
34738;BME280;39910;47.154;27.614;2023-01-01T09:15:50;101889.75;;;10.62;100.00
34738;BME280;39910;47.154;27.614;2023-01-01T09:18:16;101879.41;;;13.55;100.00
34738;BME280;39910;47.154;27.614;2023-01-01T09:20:42;101877.91;;;14.60;100.00
34738;BME280;39910;47.154;27.614;2023-01-01T09:23:07;101880.59;;;13.26;100.00
34738;BME280;39910;47.154;27.614;2023-01-01T09:25:34;101879.72;;;14.10;100.00
34738;BME280;39910;47.154;27.614;2023-01-01T09:28:02;101881.16;;;10.97;100.00
34738;BME280;39910;47.154;27.614;2023-01-01T09:30:28;101879.44;;;9.60;100.00
34738;BME280;39910;47.154;27.614;2023-01-01T09:32:54;101880.09;;;10.03;100.00
34738;BME280;39910;47.154;27.614;2023-01-01T09:35:20;101872.19;;;10.51;100.00
34738;BME280;39910;47.154;27.614;2023-01-01T09:37:45;101869.19;;;11.20;100.00
34738;BME280;39910;47.154;27.614;2023-01-01T09:40:53;101859.09;;;11.61;100.00
34738;BME280;39910;47.154;27.614;2023-01-01T09:46:31;101844.13;;;11.32;100.00
34738;BME280;39910;47.154;27.614;2023-01-01T09:49:00;101845.53;;;11.27;100.00
34738;BME280;39910;47.154;27.614;2023-01-01T09:51:30;101834.53;;;11.67;100.00
34738;BME280;39910;47.154;27.614;2023-01-01T09:54:10;101832.78;;;9.98;100.00
34738;BME280;39910;47.154;27.614;2023-01-01T09:56:37;101838.41;;;10.24;100.00
34738;BME280;39910;47.154;27.614;2023-01-01T09:59:07;101844.78;;;10.12;100.00
34738;BME280;39910;47.154;27.614;2023-01-01T10:02:02;101844.19;;;9.69;100.00
34738;BME280;39910;47.154;27.614;2023-01-01T10:05:00;101836.41;;;10.16;100.00
34738;BME280;39910;47.154;27.614;2023-01-01T10:13:00;101833.06;;;9.95;100.00
34738;BME280;39910;47.154;27.614;2023-01-01T10:15:36;101839.56;;;10.88;100.00
34738;BME280;39910;47.154;27.614;2023-01-01T10:18:15;101833.25;;;9.53;100.00
34738;BME280;39910;47.154;27.614;2023-01-01T10:20:46;101839.09;;;9.47;100.00
34738;BME280;39910;47.154;27.614;2023-01-01T10:23:18;101848.28;;;10.51;100.00
34738;BME280;39910;47.154;27.614;2023-01-01T10:25:46;101843.25;;;10.09;100.00
34738;BME280;39910;47.154;27.614;2023-01-01T10:28:22;101843.38;;;9.88;100.00
34738;BME280;39910;47.154;27.614;2023-01-01T10:30:52;101833.94;;;10.24;100.00
34738;BME280;39910;47.154;27.614;2023-01-01T10:33:21;101840.47;;;10.11;100.00
34738;BME280;39910;47.154;27.614;2023-01-01T10:35:52;101840.91;;;10.06;100.00
34738;BME280;39910;47.154;27.614;2023-01-01T10:38:21;101845.78;;;10.59;100.00
34738;BME280;39910;47.154;27.614;2023-01-01T10:40:47;101832.31;;;10.70;100.00
34738;BME280;39910;47.154;27.614;2023-01-01T10:43:13;101827.63;;;9.87;100.00
34738;BME280;39910;47.154;27.614;2023-01-01T10:45:43;101824.09;;;10.73;100.00
34738;BME280;39910;47.154;27.614;2023-01-01T10:48:23;101818.56;;;9.99;100.00
34738;BME280;39910;47.154;27.614;2023-01-01T10:50:53;101813.91;;;10.49;100.00
34738;BME280;39910;47.154;27.614;2023-01-01T10:53:23;101815.16;;;10.65;100.00
34738;BME280;39910;47.154;27.614;2023-01-01T10:55:57;101811.28;;;10.11;100.00
34738;BME280;39910;47.154;27.614;2023-01-01T10:58:26;101810.22;;;10.23;100.00
34738;BME280;39910;47.154;27.614;2023-01-01T11:00:58;101808.88;;;10.66;100.00
34738;BME280;39910;47.154;27.614;2023-01-01T11:03:23;101809.91;;;10.26;100.00
34738;BME280;39910;47.154;27.614;2023-01-01T11:09:19;101809.06;;;10.06;100.00
34738;BME280;39910;47.154;27.614;2023-01-01T11:11:47;101804.34;;;10.29;100.00
34738;BME280;39910;47.154;27.614;2023-01-01T11:14:21;101798.38;;;10.64;100.00
34738;BME280;39910;47.154;27.614;2023-01-01T11:16:50;101786.81;;;11.02;100.00
34738;BME280;39910;47.154;27.614;2023-01-01T11:19:31;101781.88;;;11.07;100.00
34738;BME280;39910;47.154;27.614;2023-01-01T11:21:59;101778.75;;;10.94;100.00
34738;BME280;39910;47.154;27.614;2023-01-01T11:24:27;101786.06;;;10.83;100.00
34738;BME280;39910;47.154;27.614;2023-01-01T11:27:30;101778.38;;;11.34;100.00
34738;BME280;39910;47.154;27.614;2023-01-01T11:32:45;101775.72;;;11.34;100.00
34738;BME280;39910;47.154;27.614;2023-01-01T11:35:18;101770.66;;;11.14;100.00
34738;BME280;39910;47.154;27.614;2023-01-01T11:37:45;101779.59;;;10.85;100.00
34738;BME280;39910;47.154;27.614;2023-01-01T11:40:28;101771.28;;;10.70;100.00
34738;BME280;39910;47.154;27.614;2023-01-01T11:42:59;101778.78;;;10.85;100.00
34738;BME280;39910;47.154;27.614;2023-01-01T11:45:41;101778.03;;;10.92;100.00
34738;BME280;39910;47.154;27.614;2023-01-01T11:48:23;101774.13;;;10.87;100.00
34738;BME280;39910;47.154;27.614;2023-01-01T11:50:55;101779.47;;;10.40;100.00
34738;BME280;39910;47.154;27.614;2023-01-01T12:01:38;101769.50;;;10.98;100.00
34738;BME280;39910;47.154;27.614;2023-01-01T12:07:08;101760.66;;;10.80;100.00
34738;BME280;39910;47.154;27.614;2023-01-01T12:12:47;101762.19;;;11.55;100.00
34738;BME280;39910;47.154;27.614;2023-01-01T12:15:16;101753.16;;;10.93;100.00
34738;BME280;39910;47.154;27.614;2023-01-01T12:17:46;101751.06;;;10.97;100.00
34738;BME280;39910;47.154;27.614;2023-01-01T12:20:21;101757.13;;;11.17;100.00
34738;BME280;39910;47.154;27.614;2023-01-01T12:22:49;101757.94;;;11.80;100.00
34738;BME280;39910;47.154;27.614;2023-01-01T12:25:18;101753.81;;;11.50;100.00
34738;BME280;39910;47.154;27.614;2023-01-01T12:28:35;101744.94;;;11.95;100.00
34738;BME280;39910;47.154;27.614;2023-01-01T12:33:48;101755.66;;;11.22;100.00
34738;BME280;39910;47.154;27.614;2023-01-01T12:42:07;101773.47;;;11.57;100.00
34738;BME280;39910;47.154;27.614;2023-01-01T12:50:59;101771.66;;;11.58;100.00
34738;BME280;39910;47.154;27.614;2023-01-01T12:56:02;101767.09;;;11.32;100.00
34738;BME280;39910;47.154;27.614;2023-01-01T12:58:33;101766.50;;;11.39;100.00
34738;BME280;39910;47.154;27.614;2023-01-01T13:01:12;101770.66;;;11.41;100.00
34738;BME280;39910;47.154;27.614;2023-01-01T13:06:12;101775.41;;;11.38;100.00
34738;BME280;39910;47.154;27.614;2023-01-01T13:08:40;101770.25;;;11.18;100.00
34738;BME280;39910;47.154;27.614;2023-01-01T13:11:09;101780.41;;;10.95;100.00
34738;BME280;39910;47.154;27.614;2023-01-01T13:13:35;101784.91;;;10.85;100.00
34738;BME280;39910;47.154;27.614;2023-01-01T13:16:02;101790.22;;;10.85;100.00
34738;BME280;39910;47.154;27.614;2023-01-01T13:18:33;101783.03;;;11.05;100.00
34738;BME280;39910;47.154;27.614;2023-01-01T13:21:01;101798.38;;;10.64;100.00
34738;BME280;39910;47.154;27.614;2023-01-01T13:34:32;101785.63;;;10.77;100.00
34738;BME280;39910;47.154;27.614;2023-01-01T13:40:46;101779.09;;;10.72;100.00
34738;BME280;39910;47.154;27.614;2023-01-01T13:43:03;101781.69;;;10.44;100.00
34738;BME280;39910;47.154;27.614;2023-01-01T13:45:38;101799.84;;;10.39;100.00
34738;BME280;39910;47.154;27.614;2023-01-01T13:51:04;101779.06;;;10.25;100.00
34738;BME280;39910;47.154;27.614;2023-01-01T13:57:18;101799.44;;;10.15;100.00
34738;BME280;39910;47.154;27.614;2023-01-01T13:59:46;101796.94;;;9.94;100.00
34738;BME280;39910;47.154;27.614;2023-01-01T14:10:19;101803.19;;;9.74;100.00
34738;BME280;39910;47.154;27.614;2023-01-01T14:12:46;101798.03;;;9.72;100.00
34738;BME280;39910;47.154;27.614;2023-01-01T14:15:38;101795.94;;;9.66;100.00
34738;BME280;39910;47.154;27.614;2023-01-01T14:18:10;101797.34;;;9.70;100.00
34738;BME280;39910;47.154;27.614;2023-01-01T14:20:42;101792.84;;;9.51;100.00
34738;BME280;39910;47.154;27.614;2023-01-01T14:23:18;101790.88;;;9.44;100.00
34738;BME280;39910;47.154;27.614;2023-01-01T14:25:45;101793.97;;;9.49;100.00
34738;BME280;39910;47.154;27.614;2023-01-01T14:28:18;101792.38;;;9.36;100.00
34738;BME280;39910;47.154;27.614;2023-01-01T14:30:46;101782.03;;;9.24;100.00
34738;BME280;39910;47.154;27.614;2023-01-01T14:33:30;101794.13;;;9.17;100.00
34738;BME280;39910;47.154;27.614;2023-01-01T14:35:57;101792.75;;;9.22;100.00
34738;BME280;39910;47.154;27.614;2023-01-01T14:38:31;101793.28;;;9.16;100.00
34738;BME280;39910;47.154;27.614;2023-01-01T14:43:39;101784.88;;;9.01;100.00